Pagrindinis puslapis
METAR-TAF:

METAR-TAF

Oro uostai :

Samsunas, Turkija

platuma: 41-15-15N, ilguma: 036-34-03E, Aukštis: 5 m

Dabartinis oras

Ataskaita buvo paskelbta 1 valandą ir 4 minutes, ne 16:50 UTC
Vėjas 7 kt iš Šiaurės
Temperatūra 22°C
Drėgmė 65%
Slėgis 1019 hPa
Matomumas 10 km arba daugiau
Mažai debesys ne aukštis 3600 ft
Su prošvaistėmis ne aukštis 10000 ft

METAR: LTFH 151650Z 35007KT 9999 FEW036 BKN100 22/15 Q1019 NOSIG

Laikas: 20:54 (17:54 UTC)

Prognozė

Ataskaita buvo paskelbta 1 valandą ir 14 minutes, ne 16:40 UTC
Prognozė galioja nuo 15 metu 18 UTC su 16 metu 03 UTC
Vėjas 2 kt nuo kintamojo kryptimis
Matomumas 10 km arba daugiau
Mažai debesys ne aukštis 3500 ft
Išsisklaidę debesys ne aukštis 10000 ft

TAF: LTFH 151640Z 1518/1603 VRB02KT 9999 FEW035 SCT100

Orai ataskaitas ir orų prognozės (METAR, TAF).

turimą stotys yra geltonos ir raudonos taškus žemėlapyje.

Perkelti pele per norėdami pamatyti stoties vardą.

Tada spustelėkite, norėdami matyti oro stebėjimo ir prognozės.

Norėdami pakeisti žemėlapį: spustelėkite ant žalios mygtukų su juodo kryžiaus žemyn,; žalią mygtuką su brūkšneliu, jei norite nutolinti; arba žalių rodyklių gretimoms žemėlapius.


METAR-TAF: